LFLY/LYN METAR and TAF weather

Enter ICAO airport designator
Station Type Date Time Source
LFLY METAR 2022/12/05 14:00 UTC NOAA

LFLY 051400Z AUTO 00000KT CAVOK 09/02 Q1019 NOSIG


Station Type Date Time Source
LFLY Decoded METAR 2022/12/05 14:00 UTC NOAA

Lyon / Bron, France (LFLY) 45-43N 004-57E 201M
Dec 05, 2022 - 09:00 AM EST / 2022.12.05 1400 UTC
Wind: Calm:0
Visibility: greater than 7 mile(s):0
Temperature: 48 F (9 C)
Dew Point: 35 F (2 C)
Relative Humidity: 61%
Pressure (altimeter): 30.09 in. Hg (1019 hPa)
ob: LFLY 051400Z AUTO 00000KT CAVOK 09/02 Q1019 NOSIG
cycle: 14

Station Type Date Time Source
LFLY TAF 2022/12/05 12:42 UTC NOAA

TAF LFLY 051100Z 0512/0612 VRB02KT CAVOK
BECMG 0517/0520 OVC008 PROB40
TEMPO 0519/0605 0600 FG VV///
BECMG 0606/0609 34006KT
TEMPO 0606/0611 2000 BR BKN004

Example: see airport list